sensor_id;sensor_type;location;lat;lon;timestamp;P1;durP1;ratioP1;P2;durP2;ratioP2
70008;SDS011;59542;37.950;-122.338;2022-07-11T00:02:23;5.88;;;3.38;;
70008;SDS011;59542;37.950;-122.338;2022-07-11T00:04:49;8.02;;;3.50;;
70008;SDS011;59542;37.950;-122.338;2022-07-11T00:07:15;6.57;;;3.65;;
70008;SDS011;59542;37.950;-122.338;2022-07-11T00:09:42;5.90;;;3.55;;
70008;SDS011;59542;37.950;-122.338;2022-07-11T00:12:09;7.13;;;3.25;;
70008;SDS011;59542;37.950;-122.338;2022-07-11T00:14:36;5.28;;;2.92;;
70008;SDS011;59542;37.950;-122.338;2022-07-11T00:17:05;5.93;;;2.70;;
70008;SDS011;59542;37.950;-122.338;2022-07-11T00:19:34;4.97;;;2.70;;
70008;SDS011;59542;37.950;-122.338;2022-07-11T00:22:04;4.57;;;2.90;;
70008;SDS011;59542;37.950;-122.338;2022-07-11T00:24:31;3.95;;;2.65;;
70008;SDS011;59542;37.950;-122.338;2022-07-11T00:26:58;6.07;;;2.90;;
70008;SDS011;59542;37.950;-122.338;2022-07-11T00:29:24;3.45;;;2.45;;
70008;SDS011;59542;37.950;-122.338;2022-07-11T00:31:51;4.35;;;3.08;;
70008;SDS011;59542;37.950;-122.338;2022-07-11T00:34:17;6.82;;;2.85;;
70008;SDS011;59542;37.950;-122.338;2022-07-11T00:36:44;4.60;;;2.20;;
70008;SDS011;59542;37.950;-122.338;2022-07-11T00:39:10;4.68;;;2.67;;
70008;SDS011;59542;37.950;-122.338;2022-07-11T00:41:36;3.80;;;2.55;;
70008;SDS011;59542;37.950;-122.338;2022-07-11T00:44:03;4.28;;;2.67;;
70008;SDS011;59542;37.950;-122.338;2022-07-11T00:46:29;5.43;;;2.78;;
70008;SDS011;59542;37.950;-122.338;2022-07-11T00:48:56;4.25;;;2.60;;
70008;SDS011;59542;37.950;-122.338;2022-07-11T00:51:23;5.43;;;2.75;;
70008;SDS011;59542;37.950;-122.338;2022-07-11T00:53:51;3.65;;;2.50;;
70008;SDS011;59542;37.950;-122.338;2022-07-11T00:56:21;3.78;;;2.45;;
70008;SDS011;59542;37.950;-122.338;2022-07-11T00:58:49;4.63;;;2.67;;
70008;SDS011;59542;37.950;-122.338;2022-07-11T01:01:16;2.80;;;2.50;;
70008;SDS011;59542;37.950;-122.338;2022-07-11T01:03:43;4.78;;;2.90;;
70008;SDS011;59542;37.950;-122.338;2022-07-11T01:06:10;6.10;;;3.20;;
70008;SDS011;59542;37.950;-122.338;2022-07-11T01:08:38;3.05;;;2.60;;
70008;SDS011;59542;37.950;-122.338;2022-07-11T01:11:05;4.80;;;3.13;;
70008;SDS011;59542;37.950;-122.338;2022-07-11T01:13:44;4.72;;;3.35;;
70008;SDS011;59542;37.950;-122.338;2022-07-11T01:16:12;6.22;;;3.22;;
70008;SDS011;59542;37.950;-122.338;2022-07-11T01:18:40;3.83;;;2.78;;
70008;SDS011;59542;37.950;-122.338;2022-07-11T01:21:10;4.65;;;3.25;;
70008;SDS011;59542;37.950;-122.338;2022-07-11T01:23:44;3.50;;;2.88;;
70008;SDS011;59542;37.950;-122.338;2022-07-11T01:26:14;3.60;;;3.25;;
70008;SDS011;59542;37.950;-122.338;2022-07-11T01:28:42;5.05;;;3.47;;
70008;SDS011;59542;37.950;-122.338;2022-07-11T01:31:10;4.75;;;3.15;;
70008;SDS011;59542;37.950;-122.338;2022-07-11T01:33:37;4.60;;;3.03;;
70008;SDS011;59542;37.950;-122.338;2022-07-11T01:36:04;4.78;;;3.38;;
70008;SDS011;59542;37.950;-122.338;2022-07-11T01:38:31;6.18;;;3.28;;
70008;SDS011;59542;37.950;-122.338;2022-07-11T01:40:57;3.65;;;2.83;;
70008;SDS011;59542;37.950;-122.338;2022-07-11T01:43:24;6.90;;;3.10;;
70008;SDS011;59542;37.950;-122.338;2022-07-11T01:45:53;5.15;;;3.30;;
70008;SDS011;59542;37.950;-122.338;2022-07-11T01:48:20;3.53;;;2.90;;
70008;SDS011;59542;37.950;-122.338;2022-07-11T01:50:47;3.92;;;2.90;;
70008;SDS011;59542;37.950;-122.338;2022-07-11T01:53:14;3.58;;;2.92;;
70008;SDS011;59542;37.950;-122.338;2022-07-11T01:55:41;3.30;;;2.75;;
70008;SDS011;59542;37.950;-122.338;2022-07-11T01:58:09;4.28;;;2.58;;
70008;SDS011;59542;37.950;-122.338;2022-07-11T02:00:35;3.13;;;2.83;;
70008;SDS011;59542;37.950;-122.338;2022-07-11T02:03:02;3.20;;;2.90;;
70008;SDS011;59542;37.950;-122.338;2022-07-11T02:05:28;3.88;;;2.75;;
70008;SDS011;59542;37.950;-122.338;2022-07-11T02:07:55;2.97;;;2.53;;
70008;SDS011;59542;37.950;-122.338;2022-07-11T02:13:06;2.78;;;1.92;;
70008;SDS011;59542;37.950;-122.338;2022-07-11T02:15:34;2.83;;;2.25;;
70008;SDS011;59542;37.950;-122.338;2022-07-11T02:18:01;4.25;;;2.05;;
70008;SDS011;59542;37.950;-122.338;2022-07-11T02:20:27;3.40;;;1.75;;
70008;SDS011;59542;37.950;-122.338;2022-07-11T02:22:53;2.30;;;1.90;;
70008;SDS011;59542;37.950;-122.338;2022-07-11T02:25:21;2.58;;;1.90;;
70008;SDS011;59542;37.950;-122.338;2022-07-11T02:27:48;2.42;;;1.83;;
70008;SDS011;59542;37.950;-122.338;2022-07-11T02:30:18;2.17;;;1.70;;
70008;SDS011;59542;37.950;-122.338;2022-07-11T02:32:44;3.38;;;1.85;;
70008;SDS011;59542;37.950;-122.338;2022-07-11T02:35:10;3.03;;;2.30;;
70008;SDS011;59542;37.950;-122.338;2022-07-11T02:37:36;2.30;;;1.75;;
70008;SDS011;59542;37.950;-122.338;2022-07-11T02:40:03;2.50;;;1.65;;
70008;SDS011;59542;37.950;-122.338;2022-07-11T02:42:29;1.83;;;1.50;;
70008;SDS011;59542;37.950;-122.338;2022-07-11T02:44:55;2.17;;;1.55;;
70008;SDS011;59542;37.950;-122.338;2022-07-11T02:47:22;3.35;;;1.67;;
70008;SDS011;59542;37.950;-122.338;2022-07-11T02:49:49;3.60;;;1.80;;
70008;SDS011;59542;37.950;-122.338;2022-07-11T02:52:15;2.85;;;2.03;;
70008;SDS011;59542;37.950;-122.338;2022-07-11T02:54:41;3.45;;;1.73;;
70008;SDS011;59542;37.950;-122.338;2022-07-11T02:57:08;3.15;;;1.77;;
70008;SDS011;59542;37.950;-122.338;2022-07-11T02:59:34;3.45;;;2.03;;
70008;SDS011;59542;37.950;-122.338;2022-07-11T03:02:00;2.97;;;2.00;;
70008;SDS011;59542;37.950;-122.338;2022-07-11T03:04:32;3.70;;;2.35;;
70008;SDS011;59542;37.950;-122.338;2022-07-11T03:06:59;3.60;;;2.47;;
70008;SDS011;59542;37.950;-122.338;2022-07-11T03:09:25;2.88;;;2.40;;
70008;SDS011;59542;37.950;-122.338;2022-07-11T03:11:52;2.63;;;2.13;;
70008;SDS011;59542;37.950;-122.338;2022-07-11T03:14:18;3.35;;;2.47;;
70008;SDS011;59542;37.950;-122.338;2022-07-11T03:16:44;7.57;;;3.42;;
70008;SDS011;59542;37.950;-122.338;2022-07-11T03:19:11;3.90;;;2.67;;
70008;SDS011;59542;37.950;-122.338;2022-07-11T03:21:37;5.25;;;3.17;;
70008;SDS011;59542;37.950;-122.338;2022-07-11T03:24:03;5.72;;;2.97;;
70008;SDS011;59542;37.950;-122.338;2022-07-11T03:26:29;6.82;;;2.90;;
70008;SDS011;59542;37.950;-122.338;2022-07-11T03:28:56;6.43;;;3.25;;
70008;SDS011;59542;37.950;-122.338;2022-07-11T03:31:22;4.80;;;3.60;;
70008;SDS011;59542;37.950;-122.338;2022-07-11T03:33:48;5.88;;;2.90;;
70008;SDS011;59542;37.950;-122.338;2022-07-11T03:36:14;6.38;;;3.78;;
70008;SDS011;59542;37.950;-122.338;2022-07-11T03:38:40;6.57;;;3.63;;
70008;SDS011;59542;37.950;-122.338;2022-07-11T03:41:06;8.18;;;3.97;;
70008;SDS011;59542;37.950;-122.338;2022-07-11T03:43:33;8.13;;;3.33;;
70008;SDS011;59542;37.950;-122.338;2022-07-11T03:45:59;9.00;;;3.90;;
70008;SDS011;59542;37.950;-122.338;2022-07-11T03:48:25;8.23;;;3.72;;
70008;SDS011;59542;37.950;-122.338;2022-07-11T03:50:51;8.32;;;3.90;;
70008;SDS011;59542;37.950;-122.338;2022-07-11T03:53:17;7.80;;;4.40;;
70008;SDS011;59542;37.950;-122.338;2022-07-11T03:55:44;9.27;;;4.00;;
70008;SDS011;59542;37.950;-122.338;2022-07-11T03:58:10;10.07;;;4.50;;
70008;SDS011;59542;37.950;-122.338;2022-07-11T04:00:36;8.30;;;4.40;;
70008;SDS011;59542;37.950;-122.338;2022-07-11T04:03:02;9.48;;;4.15;;
70008;SDS011;59542;37.950;-122.338;2022-07-11T04:05:28;13.77;;;4.00;;
70008;SDS011;59542;37.950;-122.338;2022-07-11T04:07:55;20.88;;;5.20;;
70008;SDS011;59542;37.950;-122.338;2022-07-11T04:10:23;9.90;;;4.40;;
70008;SDS011;59542;37.950;-122.338;2022-07-11T04:12:49;9.23;;;4.07;;
70008;SDS011;59542;37.950;-122.338;2022-07-11T04:15:15;14.85;;;5.07;;
70008;SDS011;59542;37.950;-122.338;2022-07-11T04:17:41;18.52;;;5.63;;
70008;SDS011;59542;37.950;-122.338;2022-07-11T04:20:08;15.05;;;4.78;;
70008;SDS011;59542;37.950;-122.338;2022-07-11T04:22:34;12.57;;;5.15;;
70008;SDS011;59542;37.950;-122.338;2022-07-11T04:25:00;13.25;;;5.40;;
70008;SDS011;59542;37.950;-122.338;2022-07-11T04:27:27;18.85;;;5.28;;
70008;SDS011;59542;37.950;-122.338;2022-07-11T04:29:54;17.88;;;5.88;;
70008;SDS011;59542;37.950;-122.338;2022-07-11T04:32:21;15.55;;;5.57;;
70008;SDS011;59542;37.950;-122.338;2022-07-11T04:34:47;16.23;;;5.97;;
70008;SDS011;59542;37.950;-122.338;2022-07-11T04:37:13;20.67;;;5.72;;
70008;SDS011;59542;37.950;-122.338;2022-07-11T04:39:39;16.63;;;5.75;;
70008;SDS011;59542;37.950;-122.338;2022-07-11T04:42:05;21.13;;;5.60;;
70008;SDS011;59542;37.950;-122.338;2022-07-11T04:44:34;23.88;;;6.20;;
70008;SDS011;59542;37.950;-122.338;2022-07-11T04:47:00;17.90;;;6.15;;
70008;SDS011;59542;37.950;-122.338;2022-07-11T04:49:28;15.93;;;5.43;;
70008;SDS011;59542;37.950;-122.338;2022-07-11T04:51:55;19.30;;;5.95;;
70008;SDS011;59542;37.950;-122.338;2022-07-11T04:54:23;20.80;;;7.22;;
70008;SDS011;59542;37.950;-122.338;2022-07-11T04:56:49;21.30;;;5.28;;
70008;SDS011;59542;37.950;-122.338;2022-07-11T04:59:15;24.50;;;6.05;;
70008;SDS011;59542;37.950;-122.338;2022-07-11T05:01:41;25.65;;;6.68;;
70008;SDS011;59542;37.950;-122.338;2022-07-11T05:04:07;19.83;;;6.55;;
70008;SDS011;59542;37.950;-122.338;2022-07-11T05:06:34;19.15;;;6.47;;
70008;SDS011;59542;37.950;-122.338;2022-07-11T05:09:00;26.45;;;6.25;;
70008;SDS011;59542;37.950;-122.338;2022-07-11T05:11:26;26.50;;;6.65;;
70008;SDS011;59542;37.950;-122.338;2022-07-11T05:13:52;25.60;;;6.30;;
70008;SDS011;59542;37.950;-122.338;2022-07-11T05:16:19;19.42;;;6.05;;
70008;SDS011;59542;37.950;-122.338;2022-07-11T05:18:45;23.13;;;6.85;;
70008;SDS011;59542;37.950;-122.338;2022-07-11T05:21:11;19.70;;;6.03;;
70008;SDS011;59542;37.950;-122.338;2022-07-11T05:23:37;19.48;;;5.38;;
70008;SDS011;59542;37.950;-122.338;2022-07-11T05:26:03;22.48;;;6.75;;
70008;SDS011;59542;37.950;-122.338;2022-07-11T05:28:30;27.17;;;6.57;;
70008;SDS011;59542;37.950;-122.338;2022-07-11T05:30:56;21.40;;;6.35;;
70008;SDS011;59542;37.950;-122.338;2022-07-11T05:33:22;20.52;;;6.70;;
70008;SDS011;59542;37.950;-122.338;2022-07-11T05:35:48;17.90;;;6.80;;
70008;SDS011;59542;37.950;-122.338;2022-07-11T05:38:14;18.17;;;5.72;;
70008;SDS011;59542;37.950;-122.338;2022-07-11T05:40:41;23.13;;;6.30;;
70008;SDS011;59542;37.950;-122.338;2022-07-11T05:43:07;19.92;;;6.30;;
70008;SDS011;59542;37.950;-122.338;2022-07-11T05:45:33;23.30;;;7.57;;
70008;SDS011;59542;37.950;-122.338;2022-07-11T05:47:59;23.90;;;6.35;;
70008;SDS011;59542;37.950;-122.338;2022-07-11T05:50:26;27.85;;;6.90;;
70008;SDS011;59542;37.950;-122.338;2022-07-11T05:52:52;23.65;;;6.45;;
70008;SDS011;59542;37.950;-122.338;2022-07-11T05:55:18;16.05;;;5.50;;
70008;SDS011;59542;37.950;-122.338;2022-07-11T05:57:44;22.17;;;5.88;;
70008;SDS011;59542;37.950;-122.338;2022-07-11T06:00:11;21.30;;;5.95;;
70008;SDS011;59542;37.950;-122.338;2022-07-11T06:02:37;24.80;;;6.65;;
70008;SDS011;59542;37.950;-122.338;2022-07-11T06:05:04;28.60;;;6.47;;
70008;SDS011;59542;37.950;-122.338;2022-07-11T06:07:30;24.13;;;5.97;;
70008;SDS011;59542;37.950;-122.338;2022-07-11T06:10:14;24.30;;;6.32;;
70008;SDS011;59542;37.950;-122.338;2022-07-11T06:12:41;32.15;;;7.25;;
70008;SDS011;59542;37.950;-122.338;2022-07-11T06:15:09;24.70;;;6.65;;
70008;SDS011;59542;37.950;-122.338;2022-07-11T06:17:36;22.02;;;5.97;;
70008;SDS011;59542;37.950;-122.338;2022-07-11T06:20:02;21.65;;;6.35;;
70008;SDS011;59542;37.950;-122.338;2022-07-11T06:22:29;24.08;;;6.72;;
70008;SDS011;59542;37.950;-122.338;2022-07-11T06:24:55;22.38;;;5.53;;
70008;SDS011;59542;37.950;-122.338;2022-07-11T06:27:21;26.08;;;6.93;;
70008;SDS011;59542;37.950;-122.338;2022-07-11T06:29:47;28.35;;;6.97;;
70008;SDS011;59542;37.950;-122.338;2022-07-11T06:32:13;28.55;;;6.60;;
70008;SDS011;59542;37.950;-122.338;2022-07-11T06:34:39;25.63;;;7.18;;
70008;SDS011;59542;37.950;-122.338;2022-07-11T06:37:06;22.77;;;6.35;;
70008;SDS011;59542;37.950;-122.338;2022-07-11T06:39:32;21.55;;;6.18;;
70008;SDS011;59542;37.950;-122.338;2022-07-11T06:41:59;23.65;;;6.20;;
70008;SDS011;59542;37.950;-122.338;2022-07-11T06:44:25;29.48;;;6.95;;
70008;SDS011;59542;37.950;-122.338;2022-07-11T06:46:51;20.10;;;6.60;;
70008;SDS011;59542;37.950;-122.338;2022-07-11T06:49:17;28.27;;;6.63;;
70008;SDS011;59542;37.950;-122.338;2022-07-11T06:51:43;22.17;;;5.65;;
70008;SDS011;59542;37.950;-122.338;2022-07-11T06:54:10;24.08;;;5.65;;
70008;SDS011;59542;37.950;-122.338;2022-07-11T06:56:36;18.23;;;6.30;;
70008;SDS011;59542;37.950;-122.338;2022-07-11T06:59:02;24.52;;;6.57;;
70008;SDS011;59542;37.950;-122.338;2022-07-11T07:01:28;22.48;;;5.95;;
70008;SDS011;59542;37.950;-122.338;2022-07-11T07:03:54;20.80;;;5.53;;
70008;SDS011;59542;37.950;-122.338;2022-07-11T07:06:21;32.85;;;6.97;;
70008;SDS011;59542;37.950;-122.338;2022-07-11T07:08:47;23.35;;;6.63;;
70008;SDS011;59542;37.950;-122.338;2022-07-11T07:11:13;23.60;;;5.95;;
70008;SDS011;59542;37.950;-122.338;2022-07-11T07:13:39;24.65;;;5.95;;
70008;SDS011;59542;37.950;-122.338;2022-07-11T07:16:06;28.02;;;5.93;;
70008;SDS011;59542;37.950;-122.338;2022-07-11T07:18:32;27.50;;;6.32;;
70008;SDS011;59542;37.950;-122.338;2022-07-11T07:20:58;23.13;;;6.22;;
70008;SDS011;59542;37.950;-122.338;2022-07-11T07:23:25;21.10;;;6.45;;
70008;SDS011;59542;37.950;-122.338;2022-07-11T07:25:51;24.02;;;6.60;;
70008;SDS011;59542;37.950;-122.338;2022-07-11T07:28:17;25.23;;;6.30;;
70008;SDS011;59542;37.950;-122.338;2022-07-11T07:30:43;26.45;;;5.82;;
70008;SDS011;59542;37.950;-122.338;2022-07-11T07:33:11;23.23;;;6.35;;
70008;SDS011;59542;37.950;-122.338;2022-07-11T07:35:38;24.83;;;6.93;;
70008;SDS011;59542;37.950;-122.338;2022-07-11T07:38:04;23.45;;;6.60;;
70008;SDS011;59542;37.950;-122.338;2022-07-11T07:40:30;21.83;;;5.97;;
70008;SDS011;59542;37.950;-122.338;2022-07-11T07:42:56;24.50;;;6.38;;
70008;SDS011;59542;37.950;-122.338;2022-07-11T07:45:23;23.25;;;6.00;;
70008;SDS011;59542;37.950;-122.338;2022-07-11T07:47:49;23.02;;;6.90;;
70008;SDS011;59542;37.950;-122.338;2022-07-11T07:50:15;27.58;;;6.55;;
70008;SDS011;59542;37.950;-122.338;2022-07-11T07:52:42;27.20;;;6.63;;
70008;SDS011;59542;37.950;-122.338;2022-07-11T07:55:08;28.40;;;6.07;;
70008;SDS011;59542;37.950;-122.338;2022-07-11T07:57:34;28.73;;;6.93;;
70008;SDS011;59542;37.950;-122.338;2022-07-11T08:00:02;24.80;;;5.90;;
70008;SDS011;59542;37.950;-122.338;2022-07-11T08:02:47;26.52;;;6.57;;
70008;SDS011;59542;37.950;-122.338;2022-07-11T08:05:16;24.05;;;6.88;;
70008;SDS011;59542;37.950;-122.338;2022-07-11T08:07:43;20.98;;;6.40;;
70008;SDS011;59542;37.950;-122.338;2022-07-11T08:10:10;23.17;;;6.78;;
70008;SDS011;59542;37.950;-122.338;2022-07-11T08:12:37;23.88;;;6.20;;
70008;SDS011;59542;37.950;-122.338;2022-07-11T08:15:03;23.73;;;6.60;;
70008;SDS011;59542;37.950;-122.338;2022-07-11T08:17:29;27.77;;;6.63;;
70008;SDS011;59542;37.950;-122.338;2022-07-11T08:19:56;25.98;;;6.82;;
70008;SDS011;59542;37.950;-122.338;2022-07-11T08:22:22;23.95;;;6.85;;
70008;SDS011;59542;37.950;-122.338;2022-07-11T08:24:48;25.27;;;7.18;;
70008;SDS011;59542;37.950;-122.338;2022-07-11T08:27:14;23.42;;;6.13;;
70008;SDS011;59542;37.950;-122.338;2022-07-11T08:29:40;23.73;;;6.75;;
70008;SDS011;59542;37.950;-122.338;2022-07-11T08:32:06;21.15;;;6.18;;
70008;SDS011;59542;37.950;-122.338;2022-07-11T08:34:33;23.77;;;6.43;;
70008;SDS011;59542;37.950;-122.338;2022-07-11T08:36:59;27.05;;;6.30;;
70008;SDS011;59542;37.950;-122.338;2022-07-11T08:39:25;19.92;;;6.35;;
70008;SDS011;59542;37.950;-122.338;2022-07-11T08:41:51;31.40;;;6.80;;
70008;SDS011;59542;37.950;-122.338;2022-07-11T08:44:19;25.10;;;7.15;;
70008;SDS011;59542;37.950;-122.338;2022-07-11T08:46:46;25.88;;;6.55;;
70008;SDS011;59542;37.950;-122.338;2022-07-11T08:49:13;25.67;;;6.05;;
70008;SDS011;59542;37.950;-122.338;2022-07-11T08:51:41;22.67;;;5.82;;
70008;SDS011;59542;37.950;-122.338;2022-07-11T08:54:07;27.42;;;6.43;;
70008;SDS011;59542;37.950;-122.338;2022-07-11T08:56:33;22.13;;;6.30;;
70008;SDS011;59542;37.950;-122.338;2022-07-11T08:59:00;25.85;;;6.65;;
70008;SDS011;59542;37.950;-122.338;2022-07-11T09:01:31;28.95;;;6.63;;
70008;SDS011;59542;37.950;-122.338;2022-07-11T09:03:59;24.17;;;5.90;;
70008;SDS011;59542;37.950;-122.338;2022-07-11T09:06:26;24.38;;;6.35;;
70008;SDS011;59542;37.950;-122.338;2022-07-11T09:08:57;27.58;;;6.40;;
70008;SDS011;59542;37.950;-122.338;2022-07-11T09:11:26;20.80;;;7.20;;
70008;SDS011;59542;37.950;-122.338;2022-07-11T09:13:52;22.95;;;6.93;;
70008;SDS011;59542;37.950;-122.338;2022-07-11T09:16:19;30.55;;;6.63;;
70008;SDS011;59542;37.950;-122.338;2022-07-11T09:18:45;24.23;;;7.03;;
70008;SDS011;59542;37.950;-122.338;2022-07-11T09:21:12;28.55;;;6.68;;
70008;SDS011;59542;37.950;-122.338;2022-07-11T09:23:58;29.70;;;7.78;;
70008;SDS011;59542;37.950;-122.338;2022-07-11T09:26:45;20.10;;;6.53;;
70008;SDS011;59542;37.950;-122.338;2022-07-11T09:29:15;31.83;;;7.80;;
70008;SDS011;59542;37.950;-122.338;2022-07-11T09:31:43;29.65;;;7.50;;
70008;SDS011;59542;37.950;-122.338;2022-07-11T09:34:16;25.38;;;6.68;;
70008;SDS011;59542;37.950;-122.338;2022-07-11T09:36:44;29.10;;;6.38;;
70008;SDS011;59542;37.950;-122.338;2022-07-11T09:39:16;30.60;;;7.47;;
70008;SDS011;59542;37.950;-122.338;2022-07-11T09:41:44;17.48;;;5.63;;
70008;SDS011;59542;37.950;-122.338;2022-07-11T09:44:16;23.30;;;6.60;;
70008;SDS011;59542;37.950;-122.338;2022-07-11T09:46:44;24.55;;;6.75;;
70008;SDS011;59542;37.950;-122.338;2022-07-11T09:49:13;35.17;;;7.78;;
70008;SDS011;59542;37.950;-122.338;2022-07-11T09:51:40;23.45;;;7.00;;
70008;SDS011;59542;37.950;-122.338;2022-07-11T09:54:07;27.85;;;6.85;;
70008;SDS011;59542;37.950;-122.338;2022-07-11T09:56:36;31.30;;;6.45;;
70008;SDS011;59542;37.950;-122.338;2022-07-11T09:59:09;31.63;;;7.45;;
70008;SDS011;59542;37.950;-122.338;2022-07-11T10:01:36;30.85;;;8.07;;
70008;SDS011;59542;37.950;-122.338;2022-07-11T10:04:07;25.00;;;7.10;;
70008;SDS011;59542;37.950;-122.338;2022-07-11T10:06:34;35.25;;;7.45;;
70008;SDS011;59542;37.950;-122.338;2022-07-11T10:09:02;23.45;;;6.25;;
70008;SDS011;59542;37.950;-122.338;2022-07-11T10:11:30;30.13;;;7.18;;
70008;SDS011;59542;37.950;-122.338;2022-07-11T10:14:01;23.63;;;6.45;;
70008;SDS011;59542;37.950;-122.338;2022-07-11T10:19:32;29.45;;;6.35;;
70008;SDS011;59542;37.950;-122.338;2022-07-11T10:24:47;28.52;;;7.07;;
70008;SDS011;59542;37.950;-122.338;2022-07-11T10:27:38;27.40;;;7.93;;
70008;SDS011;59542;37.950;-122.338;2022-07-11T10:33:14;24.17;;;6.78;;
70008;SDS011;59542;37.950;-122.338;2022-07-11T10:35:42;30.17;;;7.07;;
70008;SDS011;59542;37.950;-122.338;2022-07-11T10:38:13;36.85;;;7.07;;
70008;SDS011;59542;37.950;-122.338;2022-07-11T10:40:49;31.75;;;7.25;;
70008;SDS011;59542;37.950;-122.338;2022-07-11T10:46:04;25.35;;;7.18;;
70008;SDS011;59542;37.950;-122.338;2022-07-11T10:48:58;30.83;;;7.60;;
70008;SDS011;59542;37.950;-122.338;2022-07-11T10:51:28;33.33;;;6.93;;
70008;SDS011;59542;37.950;-122.338;2022-07-11T10:54:19;24.83;;;6.78;;
70008;SDS011;59542;37.950;-122.338;2022-07-11T11:00:02;20.23;;;6.95;;
70008;SDS011;59542;37.950;-122.338;2022-07-11T11:02:30;23.73;;;6.68;;
70008;SDS011;59542;37.950;-122.338;2022-07-11T11:05:38;26.25;;;7.22;;
70008;SDS011;59542;37.950;-122.338;2022-07-11T11:14:32;30.67;;;6.95;;
70008;SDS011;59542;37.950;-122.338;2022-07-11T11:16:44;27.23;;;8.25;;
70008;SDS011;59542;37.950;-122.338;2022-07-11T11:22:17;27.38;;;7.18;;
70008;SDS011;59542;37.950;-122.338;2022-07-11T11:24:45;24.50;;;7.05;;
70008;SDS011;59542;37.950;-122.338;2022-07-11T11:27:19;30.30;;;7.72;;
70008;SDS011;59542;37.950;-122.338;2022-07-11T11:29:53;33.92;;;8.40;;
70008;SDS011;59542;37.950;-122.338;2022-07-11T11:32:22;26.20;;;7.60;;
70008;SDS011;59542;37.950;-122.338;2022-07-11T11:34:55;32.63;;;7.28;;
70008;SDS011;59542;37.950;-122.338;2022-07-11T11:37:22;33.85;;;7.15;;
70008;SDS011;59542;37.950;-122.338;2022-07-11T11:39:56;24.65;;;7.22;;
70008;SDS011;59542;37.950;-122.338;2022-07-11T11:42:24;33.55;;;8.30;;
70008;SDS011;59542;37.950;-122.338;2022-07-11T11:44:51;28.98;;;7.30;;
70008;SDS011;59542;37.950;-122.338;2022-07-11T11:47:22;37.88;;;8.93;;
70008;SDS011;59542;37.950;-122.338;2022-07-11T11:49:49;28.40;;;7.35;;
70008;SDS011;59542;37.950;-122.338;2022-07-11T11:52:16;29.00;;;8.15;;
70008;SDS011;59542;37.950;-122.338;2022-07-11T11:54:43;26.90;;;6.90;;
70008;SDS011;59542;37.950;-122.338;2022-07-11T11:57:15;34.10;;;7.80;;
70008;SDS011;59542;37.950;-122.338;2022-07-11T11:59:41;27.73;;;7.63;;
70008;SDS011;59542;37.950;-122.338;2022-07-11T12:02:08;28.83;;;8.27;;
70008;SDS011;59542;37.950;-122.338;2022-07-11T12:04:35;28.52;;;7.60;;
70008;SDS011;59542;37.950;-122.338;2022-07-11T12:07:02;33.10;;;8.23;;
70008;SDS011;59542;37.950;-122.338;2022-07-11T12:09:29;25.92;;;7.22;;
70008;SDS011;59542;37.950;-122.338;2022-07-11T12:12:17;30.00;;;8.23;;
70008;SDS011;59542;37.950;-122.338;2022-07-11T12:15:04;36.20;;;8.00;;
70008;SDS011;59542;37.950;-122.338;2022-07-11T12:17:32;33.30;;;8.57;;
70008;SDS011;59542;37.950;-122.338;2022-07-11T12:19:58;34.80;;;8.02;;
70008;SDS011;59542;37.950;-122.338;2022-07-11T12:22:24;24.70;;;7.95;;
70008;SDS011;59542;37.950;-122.338;2022-07-11T12:24:52;25.27;;;7.03;;
70008;SDS011;59542;37.950;-122.338;2022-07-11T12:27:19;29.23;;;7.38;;
70008;SDS011;59542;37.950;-122.338;2022-07-11T12:29:47;32.70;;;8.15;;
70008;SDS011;59542;37.950;-122.338;2022-07-11T12:32:19;27.75;;;7.50;;
70008;SDS011;59542;37.950;-122.338;2022-07-11T12:34:48;38.00;;;8.52;;
70008;SDS011;59542;37.950;-122.338;2022-07-11T12:37:19;37.17;;;8.40;;
70008;SDS011;59542;37.950;-122.338;2022-07-11T12:39:53;30.67;;;8.48;;
70008;SDS011;59542;37.950;-122.338;2022-07-11T12:42:32;26.80;;;8.02;;
70008;SDS011;59542;37.950;-122.338;2022-07-11T12:45:07;30.65;;;7.95;;
70008;SDS011;59542;37.950;-122.338;2022-07-11T12:47:45;27.95;;;7.13;;
70008;SDS011;59542;37.950;-122.338;2022-07-11T12:50:17;28.80;;;7.35;;
70008;SDS011;59542;37.950;-122.338;2022-07-11T12:55:20;34.80;;;8.43;;
70008;SDS011;59542;37.950;-122.338;2022-07-11T13:00:57;21.52;;;6.63;;
70008;SDS011;59542;37.950;-122.338;2022-07-11T13:03:31;27.33;;;8.10;;
70008;SDS011;59542;37.950;-122.338;2022-07-11T13:05:59;26.33;;;8.35;;
70008;SDS011;59542;37.950;-122.338;2022-07-11T13:08:31;27.15;;;7.70;;
70008;SDS011;59542;37.950;-122.338;2022-07-11T13:11:25;27.92;;;7.97;;
70008;SDS011;59542;37.950;-122.338;2022-07-11T13:13:52;23.67;;;8.55;;
70008;SDS011;59542;37.950;-122.338;2022-07-11T13:16:18;28.15;;;8.98;;
70008;SDS011;59542;37.950;-122.338;2022-07-11T13:18:45;27.60;;;8.60;;
70008;SDS011;59542;37.950;-122.338;2022-07-11T13:21:11;25.70;;;7.72;;
70008;SDS011;59542;37.950;-122.338;2022-07-11T13:26:41;28.15;;;8.30;;
70008;SDS011;59542;37.950;-122.338;2022-07-11T13:29:07;21.90;;;7.40;;
70008;SDS011;59542;37.950;-122.338;2022-07-11T13:31:33;25.65;;;7.50;;
70008;SDS011;59542;37.950;-122.338;2022-07-11T13:33:59;26.73;;;8.63;;
70008;SDS011;59542;37.950;-122.338;2022-07-11T13:36:25;27.08;;;7.40;;
70008;SDS011;59542;37.950;-122.338;2022-07-11T13:38:52;34.90;;;8.55;;
70008;SDS011;59542;37.950;-122.338;2022-07-11T13:41:18;26.75;;;9.35;;
70008;SDS011;59542;37.950;-122.338;2022-07-11T13:43:44;32.30;;;8.00;;
70008;SDS011;59542;37.950;-122.338;2022-07-11T13:46:12;30.75;;;8.60;;
70008;SDS011;59542;37.950;-122.338;2022-07-11T13:48:38;27.27;;;8.15;;
70008;SDS011;59542;37.950;-122.338;2022-07-11T13:51:07;28.33;;;7.90;;
70008;SDS011;59542;37.950;-122.338;2022-07-11T13:53:33;31.50;;;7.72;;
70008;SDS011;59542;37.950;-122.338;2022-07-11T13:55:59;29.20;;;8.60;;
70008;SDS011;59542;37.950;-122.338;2022-07-11T13:58:26;39.58;;;9.02;;
70008;SDS011;59542;37.950;-122.338;2022-07-11T14:00:52;34.90;;;8.43;;
70008;SDS011;59542;37.950;-122.338;2022-07-11T14:03:19;36.63;;;8.98;;
70008;SDS011;59542;37.950;-122.338;2022-07-11T14:05:45;36.00;;;9.10;;
70008;SDS011;59542;37.950;-122.338;2022-07-11T14:08:11;42.00;;;9.48;;
70008;SDS011;59542;37.950;-122.338;2022-07-11T14:10:39;39.88;;;9.60;;
70008;SDS011;59542;37.950;-122.338;2022-07-11T14:13:06;29.55;;;8.80;;
70008;SDS011;59542;37.950;-122.338;2022-07-11T14:15:32;46.38;;;10.50;;
70008;SDS011;59542;37.950;-122.338;2022-07-11T14:17:59;40.22;;;9.95;;
70008;SDS011;59542;37.950;-122.338;2022-07-11T14:20:25;29.88;;;8.75;;
70008;SDS011;59542;37.950;-122.338;2022-07-11T14:22:51;27.92;;;8.45;;
70008;SDS011;59542;37.950;-122.338;2022-07-11T14:25:18;28.75;;;7.88;;
70008;SDS011;59542;37.950;-122.338;2022-07-11T14:27:44;29.35;;;8.45;;
70008;SDS011;59542;37.950;-122.338;2022-07-11T14:30:10;30.77;;;8.68;;
70008;SDS011;59542;37.950;-122.338;2022-07-11T14:32:36;32.03;;;8.23;;
70008;SDS011;59542;37.950;-122.338;2022-07-11T14:35:03;31.00;;;8.57;;
70008;SDS011;59542;37.950;-122.338;2022-07-11T14:37:29;38.08;;;8.60;;
70008;SDS011;59542;37.950;-122.338;2022-07-11T14:39:55;36.53;;;7.75;;
70008;SDS011;59542;37.950;-122.338;2022-07-11T14:42:21;36.17;;;8.45;;